createdAt,value
2022-12-12T00:04:02.719Z,2.69
2022-12-12T00:09:04.727Z,2.69
2022-12-12T00:14:06.206Z,2.71
2022-12-12T00:19:07.627Z,2.74
2022-12-12T00:24:09.181Z,2.75
2022-12-12T00:29:11.207Z,2.76
2022-12-12T00:34:13.392Z,2.77
2022-12-12T00:39:18.351Z,2.81
2022-12-12T00:44:19.936Z,2.75
2022-12-12T00:49:21.328Z,2.67
2022-12-12T00:54:23.594Z,2.71
2022-12-12T00:59:25.013Z,2.75
2022-12-12T01:04:26.382Z,2.56
2022-12-12T01:09:27.774Z,2.54
2022-12-12T01:14:29.164Z,2.49
2022-12-12T01:19:30.513Z,2.55
2022-12-12T01:24:32.015Z,2.63
2022-12-12T01:29:34.764Z,2.68
2022-12-12T01:34:36.162Z,2.70
2022-12-12T01:39:37.519Z,2.78
2022-12-12T01:44:45.878Z,2.86
2022-12-12T01:49:59.438Z,2.85
2022-12-12T01:55:05.256Z,2.86
2022-12-12T02:00:08.448Z,2.88
2022-12-12T02:05:23.047Z,2.92
2022-12-12T02:10:24.510Z,2.94
2022-12-12T02:15:30.328Z,2.95
2022-12-12T02:20:45.902Z,3.00
2022-12-12T02:26:21.053Z,3.00
2022-12-12T02:31:27.320Z,3.03
2022-12-12T02:37:00.646Z,3.05
2022-12-12T02:42:08.484Z,3.05
2022-12-12T02:47:16.048Z,3.05
2022-12-12T02:52:17.777Z,3.03
2022-12-12T02:57:24.404Z,3.02
2022-12-12T03:02:50.152Z,2.98
2022-12-12T03:08:11.396Z,2.94
2022-12-12T03:13:27.259Z,2.91
2022-12-12T03:18:40.531Z,2.93
2022-12-12T03:23:46.995Z,2.85
2022-12-12T03:28:55.960Z,2.76
2022-12-12T03:34:02.291Z,2.77
2022-12-12T03:39:13.388Z,2.71
2022-12-12T03:44:20.535Z,2.73
2022-12-12T03:49:34.441Z,2.69
2022-12-12T03:54:48.718Z,2.70
2022-12-12T03:59:58.435Z,2.69
2022-12-12T04:05:20.589Z,2.66
2022-12-12T04:10:43.812Z,2.66
2022-12-12T04:15:51.977Z,2.63
2022-12-12T04:21:18.246Z,2.60
2022-12-12T04:26:41.633Z,2.60
2022-12-12T04:31:58.663Z,2.55
2022-12-12T04:37:01.466Z,2.57
2022-12-12T04:42:06.687Z,2.52
2022-12-12T04:47:09.959Z,2.63
2022-12-12T04:52:15.205Z,2.60
2022-12-12T04:57:25.909Z,2.60
2022-12-12T05:02:40.326Z,2.59
2022-12-12T05:07:45.703Z,2.61
2022-12-12T05:12:49.982Z,2.55
2022-12-12T05:18:00.732Z,2.55
2022-12-12T05:23:02.138Z,2.57
2022-12-12T05:28:03.610Z,2.62
2022-12-12T05:33:05.130Z,2.63
2022-12-12T05:38:06.536Z,2.63
2022-12-12T05:43:07.893Z,2.66
2022-12-12T05:48:09.236Z,2.60
2022-12-12T05:53:11.262Z,2.51
2022-12-12T05:58:12.601Z,2.53
2022-12-12T06:03:14.397Z,2.51
2022-12-12T06:08:16.241Z,2.50
2022-12-12T06:13:19.418Z,2.49
2022-12-12T06:18:20.841Z,2.49
2022-12-12T06:23:22.176Z,2.47
2022-12-12T06:28:23.574Z,2.32
2022-12-12T06:33:25.555Z,2.28
2022-12-12T06:38:27.095Z,2.35
2022-12-12T06:43:28.458Z,2.41
2022-12-12T06:48:31.611Z,2.42
2022-12-12T06:53:33.574Z,2.45
2022-12-12T06:58:35.615Z,2.46
2022-12-12T07:03:37.028Z,2.45
2022-12-12T07:08:38.888Z,2.46
2022-12-12T07:13:40.885Z,2.44
2022-12-12T07:18:42.308Z,2.53
2022-12-12T07:23:44.138Z,2.63
2022-12-12T07:28:45.812Z,2.70
2022-12-12T07:33:47.585Z,2.72
2022-12-12T07:38:49.057Z,2.76
2022-12-12T07:43:52.176Z,2.76
2022-12-12T07:48:53.871Z,2.77
2022-12-12T07:53:55.336Z,2.77
2022-12-12T07:58:58.014Z,2.80
2022-12-12T08:03:59.912Z,2.84
2022-12-12T08:09:01.824Z,2.84
2022-12-12T08:14:11.200Z,2.93
2022-12-12T08:19:14.483Z,2.95
2022-12-12T08:24:19.140Z,3.00
2022-12-12T08:29:20.959Z,3.07
2022-12-12T08:34:22.443Z,3.14
2022-12-12T08:39:23.891Z,3.15
2022-12-12T08:44:25.454Z,3.26
2022-12-12T08:49:26.985Z,3.34
2022-12-12T08:54:28.485Z,3.45
2022-12-12T08:59:30.232Z,3.51
2022-12-12T09:04:33.672Z,3.57
2022-12-12T09:09:35.233Z,3.57
2022-12-12T09:14:36.844Z,3.66
2022-12-12T09:19:38.398Z,3.75
2022-12-12T09:24:39.893Z,3.89
2022-12-12T09:29:41.475Z,4.00
2022-12-12T09:34:43.209Z,3.90
2022-12-12T09:39:44.825Z,3.94
2022-12-12T09:44:47.422Z,4.01
2022-12-12T09:49:55.635Z,4.00
2022-12-12T09:54:59.997Z,4.08
2022-12-12T10:00:12.065Z,4.12
2022-12-12T10:05:41.226Z,4.21
2022-12-12T10:10:46.290Z,4.19
2022-12-12T10:15:52.238Z,4.35
2022-12-12T10:20:57.970Z,4.34
2022-12-12T10:26:05.287Z,4.44
2022-12-12T10:31:09.433Z,4.57
2022-12-12T10:36:27.917Z,4.76
2022-12-12T10:42:15.375Z,4.77
2022-12-12T10:47:17.065Z,4.74
2022-12-12T10:52:22.012Z,4.74
2022-12-12T10:57:26.189Z,4.74
2022-12-12T11:02:52.328Z,4.73
2022-12-12T11:08:19.539Z,4.80
2022-12-12T11:13:29.379Z,4.80
2022-12-12T11:18:31.006Z,4.78
2022-12-12T11:23:34.116Z,4.66
2022-12-12T11:28:37.958Z,4.52
2022-12-12T11:33:49.650Z,4.43
2022-12-12T11:38:54.894Z,4.39
2022-12-12T11:44:00.278Z,4.33
2022-12-12T11:49:04.837Z,4.38
2022-12-12T11:54:44.977Z,4.32
2022-12-12T12:00:09.857Z,4.34
2022-12-12T12:05:25.466Z,4.37
2022-12-12T12:11:02.287Z,4.40
2022-12-12T12:16:46.820Z,4.45
2022-12-12T12:22:16.780Z,4.40
2022-12-12T12:27:52.138Z,4.20
2022-12-12T12:33:15.140Z,4.13
2022-12-12T12:38:31.763Z,4.08
2022-12-12T12:43:57.814Z,4.03
2022-12-12T12:49:10.617Z,4.02
2022-12-12T12:54:26.007Z,4.04
2022-12-12T12:59:34.175Z,3.97
2022-12-12T13:04:53.894Z,3.89
2022-12-12T13:10:04.661Z,3.84
2022-12-12T13:15:44.849Z,3.88
2022-12-12T13:21:05.417Z,3.86
2022-12-12T13:26:13.249Z,3.84
2022-12-12T13:31:24.382Z,3.88
2022-12-12T13:36:31.587Z,3.92
2022-12-12T13:41:56.370Z,3.87
2022-12-12T13:46:59.094Z,3.83
2022-12-12T13:52:40.558Z,3.64
2022-12-12T13:57:57.520Z,3.60
2022-12-12T14:03:05.162Z,3.55
2022-12-12T14:08:13.684Z,3.46
2022-12-12T14:13:24.152Z,3.40
2022-12-12T14:18:33.672Z,3.30
2022-12-12T14:23:40.131Z,3.27
2022-12-12T14:28:43.338Z,3.21
2022-12-12T14:34:05.609Z,3.12
2022-12-12T14:39:24.918Z,2.98
2022-12-12T14:44:37.938Z,2.96
2022-12-12T14:49:40.496Z,2.93
2022-12-12T14:54:42.027Z,2.90
2022-12-12T14:59:43.520Z,2.88
2022-12-12T15:04:49.478Z,2.84
2022-12-12T15:09:51.074Z,2.83
2022-12-12T15:21:37.760Z,2.41
2022-12-12T15:26:39.273Z,2.43
2022-12-12T15:31:44.325Z,2.32
2022-12-12T15:36:45.930Z,2.28
2022-12-12T15:41:47.975Z,2.29
2022-12-12T15:46:50.485Z,2.40
2022-12-12T15:51:52.227Z,2.39
2022-12-12T15:56:56.515Z,2.29
2022-12-12T16:02:13.678Z,2.21
2022-12-12T16:07:21.620Z,2.25
2022-12-12T16:12:57.022Z,2.21
2022-12-12T16:18:04.607Z,2.08
2022-12-12T16:23:31.810Z,2.05
2022-12-12T16:28:33.498Z,1.94
2022-12-12T16:33:38.724Z,1.86
2022-12-12T16:38:42.065Z,1.78
2022-12-12T16:43:44.939Z,1.67
2022-12-12T16:48:46.675Z,1.56
2022-12-12T16:53:48.099Z,1.44
2022-12-12T16:58:50.745Z,1.37
2022-12-12T17:03:52.471Z,1.27
2022-12-12T17:08:54.136Z,1.06
2022-12-12T17:13:55.707Z,1.00
2022-12-12T17:18:58.429Z,0.95
2022-12-12T17:23:59.964Z,0.89
2022-12-12T17:29:02.438Z,0.87
2022-12-12T17:34:05.845Z,0.83
2022-12-12T17:39:07.646Z,0.77
2022-12-12T17:44:10.022Z,0.69
2022-12-12T17:49:11.652Z,0.62
2022-12-12T17:54:13.199Z,0.53
2022-12-12T17:59:14.895Z,0.42
2022-12-12T18:04:16.456Z,0.36
2022-12-12T18:09:18.551Z,0.31
2022-12-12T18:14:20.302Z,0.24
2022-12-12T18:19:24.132Z,0.17
2022-12-12T18:24:29.304Z,0.18
2022-12-12T18:29:32.153Z,0.20
2022-12-12T18:34:34.245Z,0.22
2022-12-12T18:39:35.999Z,0.14
2022-12-12T18:44:37.943Z,0.09
2022-12-12T18:49:39.624Z,0.03
2022-12-12T18:54:41.283Z,-0.12
2022-12-12T18:59:45.392Z,-0.14
2022-12-12T19:04:48.541Z,-0.15
2022-12-12T19:09:50.132Z,-0.19
2022-12-12T19:15:15.709Z,-0.27
2022-12-12T19:20:13.475Z,-0.31
2022-12-12T19:25:17.258Z,-0.37
2022-12-12T19:30:18.971Z,-0.48
2022-12-12T19:35:21.448Z,-0.52
2022-12-12T19:40:22.972Z,-0.58
2022-12-12T19:45:24.552Z,-0.71
2022-12-12T19:50:26.297Z,-0.73
2022-12-12T19:55:27.825Z,-0.71
2022-12-12T20:00:29.309Z,-0.73
2022-12-12T20:05:30.858Z,-0.74
2022-12-12T20:10:36.382Z,-0.76
2022-12-12T20:15:39.238Z,-0.80
2022-12-12T20:20:40.819Z,-0.84
2022-12-12T20:25:42.812Z,-0.87
2022-12-12T20:30:44.371Z,-0.91
2022-12-12T20:35:45.996Z,-0.98
2022-12-12T20:40:49.114Z,-1.05
2022-12-12T20:45:51.106Z,-1.11
2022-12-12T20:50:54.789Z,-1.16
2022-12-12T20:55:59.030Z,-1.25
2022-12-12T21:01:03.433Z,-1.26
2022-12-12T21:06:36.465Z,-1.28
2022-12-12T21:11:38.776Z,-1.30
2022-12-12T21:16:40.959Z,-1.37
2022-12-12T21:21:43.492Z,-1.43
2022-12-12T21:26:45.835Z,-1.47
2022-12-12T21:31:51.628Z,-1.49
2022-12-12T21:37:22.635Z,-1.55
2022-12-12T21:42:24.161Z,-1.58
2022-12-12T21:47:25.669Z,-1.60
2022-12-12T21:52:27.161Z,-1.64
2022-12-12T21:57:28.636Z,-1.67
2022-12-12T22:02:30.349Z,-1.72
2022-12-12T22:07:34.744Z,-1.77
2022-12-12T22:12:36.209Z,-1.80
2022-12-12T22:17:37.762Z,-1.90
2022-12-12T22:22:39.393Z,-1.98
2022-12-12T22:27:40.874Z,-1.97
2022-12-12T22:32:43.327Z,-2.01
2022-12-12T22:37:45.120Z,-2.01
2022-12-12T22:42:46.559Z,-2.11
2022-12-12T22:47:48.038Z,-2.08
2022-12-12T22:52:49.484Z,-2.07
2022-12-12T22:57:54.054Z,-2.07
2022-12-12T23:02:57.019Z,-2.12
2022-12-12T23:07:59.506Z,-2.14
2022-12-12T23:13:01.178Z,-2.20
2022-12-12T23:18:02.583Z,-2.24
2022-12-12T23:23:03.922Z,-2.25
2022-12-12T23:28:07.129Z,-2.26
2022-12-12T23:33:12.081Z,-2.30
2022-12-12T23:38:13.743Z,-2.35
2022-12-12T23:43:15.157Z,-2.42
2022-12-12T23:48:16.506Z,-2.49
2022-12-12T23:53:17.871Z,-2.50
2022-12-12T23:58:19.533Z,-2.53
